sensor_id;sensor_type;location;lat;lon;timestamp;pressure;altitude;pressure_sealevel;temperature;humidity
36386;BME280;24125;47.482;8.770;2023-03-18T00:00:20;95936.84;;;10.73;73.54
36386;BME280;24125;47.482;8.770;2023-03-18T00:02:55;95941.06;;;10.74;73.85
36386;BME280;24125;47.482;8.770;2023-03-18T00:05:28;95940.28;;;10.73;74.43
36386;BME280;24125;47.482;8.770;2023-03-18T00:08:01;95933.41;;;10.72;74.65
36386;BME280;24125;47.482;8.770;2023-03-18T00:10:34;95937.28;;;10.75;75.11
36386;BME280;24125;47.482;8.770;2023-03-18T00:13:08;95944.66;;;10.78;74.77
36386;BME280;24125;47.482;8.770;2023-03-18T00:15:41;95946.53;;;10.77;74.78
36386;BME280;24125;47.482;8.770;2023-03-18T00:18:15;95950.09;;;10.81;75.13
36386;BME280;24125;47.482;8.770;2023-03-18T00:20:48;95957.44;;;10.84;75.21
36386;BME280;24125;47.482;8.770;2023-03-18T00:23:20;95955.25;;;10.86;75.09
36386;BME280;24125;47.482;8.770;2023-03-18T00:25:54;95958.00;;;10.90;75.02
36386;BME280;24125;47.482;8.770;2023-03-18T00:28:28;95958.47;;;10.92;75.17
36386;BME280;24125;47.482;8.770;2023-03-18T00:31:02;95958.59;;;10.95;75.11
36386;BME280;24125;47.482;8.770;2023-03-18T00:33:40;95955.22;;;10.98;75.23
36386;BME280;24125;47.482;8.770;2023-03-18T00:36:16;95964.16;;;11.03;75.75
36386;BME280;24125;47.482;8.770;2023-03-18T00:38:56;95961.16;;;11.04;74.98
36386;BME280;24125;47.482;8.770;2023-03-18T00:41:33;95963.50;;;11.06;74.95
36386;BME280;24125;47.482;8.770;2023-03-18T00:44:07;95972.41;;;11.10;74.68
36386;BME280;24125;47.482;8.770;2023-03-18T00:46:40;95964.38;;;11.10;75.51
36386;BME280;24125;47.482;8.770;2023-03-18T00:49:15;95970.19;;;11.12;75.12
36386;BME280;24125;47.482;8.770;2023-03-18T00:51:48;95967.19;;;11.13;75.14
36386;BME280;24125;47.482;8.770;2023-03-18T00:54:22;95966.84;;;11.15;74.96
36386;BME280;24125;47.482;8.770;2023-03-18T00:56:55;95962.28;;;11.15;74.78
36386;BME280;24125;47.482;8.770;2023-03-18T00:59:28;95967.97;;;11.14;75.10
36386;BME280;24125;47.482;8.770;2023-03-18T01:02:01;95967.63;;;11.15;74.46
36386;BME280;24125;47.482;8.770;2023-03-18T01:04:35;95965.28;;;11.14;74.41
36386;BME280;24125;47.482;8.770;2023-03-18T01:07:08;95966.72;;;11.11;74.08
36386;BME280;24125;47.482;8.770;2023-03-18T01:09:42;95968.63;;;11.11;74.73
36386;BME280;24125;47.482;8.770;2023-03-18T01:12:15;95958.25;;;11.09;74.30
36386;BME280;24125;47.482;8.770;2023-03-18T01:14:48;95960.47;;;11.07;74.25
36386;BME280;24125;47.482;8.770;2023-03-18T01:17:21;95964.28;;;11.06;74.42
36386;BME280;24125;47.482;8.770;2023-03-18T01:19:55;95966.19;;;11.06;74.20
36386;BME280;24125;47.482;8.770;2023-03-18T01:22:28;95959.59;;;11.03;74.28
36386;BME280;24125;47.482;8.770;2023-03-18T01:25:00;95961.81;;;11.01;74.04
36386;BME280;24125;47.482;8.770;2023-03-18T01:27:33;95966.38;;;11.01;73.90
36386;BME280;24125;47.482;8.770;2023-03-18T01:30:06;95960.94;;;10.97;74.29
36386;BME280;24125;47.482;8.770;2023-03-18T01:32:40;95962.03;;;10.96;73.94
36386;BME280;24125;47.482;8.770;2023-03-18T01:35:15;95967.25;;;10.92;73.78
36386;BME280;24125;47.482;8.770;2023-03-18T01:37:48;95961.81;;;10.89;73.78
36386;BME280;24125;47.482;8.770;2023-03-18T01:40:22;95957.91;;;10.86;73.47
36386;BME280;24125;47.482;8.770;2023-03-18T01:42:55;95950.88;;;10.82;72.86
36386;BME280;24125;47.482;8.770;2023-03-18T01:45:28;95955.34;;;10.78;72.79
36386;BME280;24125;47.482;8.770;2023-03-18T01:48:02;95948.66;;;10.72;72.78
36386;BME280;24125;47.482;8.770;2023-03-18T01:50:36;95958.44;;;10.68;73.12
36386;BME280;24125;47.482;8.770;2023-03-18T01:53:09;95950.63;;;10.63;72.82
36386;BME280;24125;47.482;8.770;2023-03-18T01:55:43;95952.72;;;10.57;73.03
36386;BME280;24125;47.482;8.770;2023-03-18T01:58:18;95948.72;;;10.51;72.53
36386;BME280;24125;47.482;8.770;2023-03-18T02:00:53;95951.25;;;10.47;72.71
36386;BME280;24125;47.482;8.770;2023-03-18T02:03:27;95946.91;;;10.43;73.17
36386;BME280;24125;47.482;8.770;2023-03-18T02:06:02;95953.22;;;10.38;72.43
36386;BME280;24125;47.482;8.770;2023-03-18T02:08:36;95949.97;;;10.33;72.82
36386;BME280;24125;47.482;8.770;2023-03-18T02:11:09;95955.97;;;10.30;73.07
36386;BME280;24125;47.482;8.770;2023-03-18T02:13:43;95958.06;;;10.24;72.86
36386;BME280;24125;47.482;8.770;2023-03-18T02:16:18;95956.41;;;10.19;73.09
36386;BME280;24125;47.482;8.770;2023-03-18T02:18:54;95944.78;;;10.15;72.49
36386;BME280;24125;47.482;8.770;2023-03-18T02:21:36;95953.09;;;10.14;72.50
36386;BME280;24125;47.482;8.770;2023-03-18T02:24:15;95959.44;;;10.09;72.86
36386;BME280;24125;47.482;8.770;2023-03-18T02:26:52;95948.28;;;10.07;73.11
36386;BME280;24125;47.482;8.770;2023-03-18T02:29:29;95945.50;;;10.04;72.59
36386;BME280;24125;47.482;8.770;2023-03-18T02:32:03;95954.16;;;10.01;73.10
36386;BME280;24125;47.482;8.770;2023-03-18T02:34:37;95951.03;;;9.99;73.03
36386;BME280;24125;47.482;8.770;2023-03-18T02:37:12;95953.91;;;9.94;72.93
36386;BME280;24125;47.482;8.770;2023-03-18T02:39:45;95954.22;;;9.92;72.95
36386;BME280;24125;47.482;8.770;2023-03-18T02:42:26;95952.22;;;9.89;73.02
36386;BME280;24125;47.482;8.770;2023-03-18T02:45:00;95955.88;;;9.84;72.84
36386;BME280;24125;47.482;8.770;2023-03-18T02:47:33;95952.72;;;9.82;72.77
36386;BME280;24125;47.482;8.770;2023-03-18T02:50:06;95946.94;;;9.80;72.90
36386;BME280;24125;47.482;8.770;2023-03-18T02:52:39;95945.25;;;9.76;72.74
36386;BME280;24125;47.482;8.770;2023-03-18T02:55:12;95949.34;;;9.73;72.98
36386;BME280;24125;47.482;8.770;2023-03-18T02:57:45;95938.53;;;9.70;72.91
36386;BME280;24125;47.482;8.770;2023-03-18T03:00:20;95946.09;;;9.68;73.10
36386;BME280;24125;47.482;8.770;2023-03-18T03:02:53;95948.63;;;9.64;72.99
36386;BME280;24125;47.482;8.770;2023-03-18T03:05:26;95945.81;;;9.61;72.92
36386;BME280;24125;47.482;8.770;2023-03-18T03:07:58;95948.69;;;9.56;72.79
36386;BME280;24125;47.482;8.770;2023-03-18T03:10:32;95944.00;;;9.53;72.77
36386;BME280;24125;47.482;8.770;2023-03-18T03:13:05;95951.56;;;9.51;72.84
36386;BME280;24125;47.482;8.770;2023-03-18T03:15:39;95946.06;;;9.47;72.96
36386;BME280;24125;47.482;8.770;2023-03-18T03:18:13;95946.72;;;9.44;72.92
36386;BME280;24125;47.482;8.770;2023-03-18T03:20:46;95956.94;;;9.42;72.93
36386;BME280;24125;47.482;8.770;2023-03-18T03:23:18;95945.34;;;9.38;73.14
36386;BME280;24125;47.482;8.770;2023-03-18T03:25:51;95949.41;;;9.35;73.10
36386;BME280;24125;47.482;8.770;2023-03-18T03:28:24;95953.19;;;9.34;73.25
36386;BME280;24125;47.482;8.770;2023-03-18T03:31:00;95954.31;;;9.33;73.11
36386;BME280;24125;47.482;8.770;2023-03-18T03:33:33;95956.84;;;9.30;73.15
36386;BME280;24125;47.482;8.770;2023-03-18T03:36:07;95959.03;;;9.28;73.18
36386;BME280;24125;47.482;8.770;2023-03-18T03:38:40;95962.78;;;9.27;73.16
36386;BME280;24125;47.482;8.770;2023-03-18T03:41:14;95959.22;;;9.23;73.15
36386;BME280;24125;47.482;8.770;2023-03-18T03:43:47;95963.75;;;9.22;73.07
36386;BME280;24125;47.482;8.770;2023-03-18T03:46:21;95962.50;;;9.20;72.93
36386;BME280;24125;47.482;8.770;2023-03-18T03:48:54;95963.94;;;9.17;72.81
36386;BME280;24125;47.482;8.770;2023-03-18T03:51:27;95966.16;;;9.15;73.04
36386;BME280;24125;47.482;8.770;2023-03-18T03:54:00;95965.69;;;9.13;72.92
36386;BME280;24125;47.482;8.770;2023-03-18T03:56:33;95964.44;;;9.11;72.63
36386;BME280;24125;47.482;8.770;2023-03-18T03:59:06;95956.31;;;9.07;72.83
36386;BME280;24125;47.482;8.770;2023-03-18T04:01:41;95969.16;;;9.05;72.90
36386;BME280;24125;47.482;8.770;2023-03-18T04:04:15;95969.81;;;9.02;72.90
36386;BME280;24125;47.482;8.770;2023-03-18T04:06:48;95973.56;;;9.01;72.43
36386;BME280;24125;47.482;8.770;2023-03-18T04:09:21;95975.00;;;8.98;72.94
36386;BME280;24125;47.482;8.770;2023-03-18T04:11:54;95965.28;;;8.94;73.00
36386;BME280;24125;47.482;8.770;2023-03-18T04:14:27;95975.94;;;8.94;72.98
36386;BME280;24125;47.482;8.770;2023-03-18T04:17:01;95977.69;;;8.90;73.00
36386;BME280;24125;47.482;8.770;2023-03-18T04:19:34;95979.56;;;8.89;73.09
36386;BME280;24125;47.482;8.770;2023-03-18T04:22:07;95986.31;;;8.87;73.32
36386;BME280;24125;47.482;8.770;2023-03-18T04:24:40;95974.88;;;8.86;73.03
36386;BME280;24125;47.482;8.770;2023-03-18T04:27:13;95977.06;;;8.84;73.06
36386;BME280;24125;47.482;8.770;2023-03-18T04:29:46;95973.50;;;8.80;73.18
36386;BME280;24125;47.482;8.770;2023-03-18T04:32:20;95969.28;;;8.79;72.94
36386;BME280;24125;47.482;8.770;2023-03-18T04:34:53;95971.78;;;8.76;73.18
36386;BME280;24125;47.482;8.770;2023-03-18T04:37:26;95964.44;;;8.73;72.73
36386;BME280;24125;47.482;8.770;2023-03-18T04:39:58;95971.94;;;8.70;72.84
36386;BME280;24125;47.482;8.770;2023-03-18T04:42:31;95975.25;;;8.67;73.29
36386;BME280;24125;47.482;8.770;2023-03-18T04:45:04;95978.56;;;8.64;73.26
36386;BME280;24125;47.482;8.770;2023-03-18T04:47:39;95978.56;;;8.64;73.16
36386;BME280;24125;47.482;8.770;2023-03-18T04:50:12;95977.59;;;8.60;73.06
36386;BME280;24125;47.482;8.770;2023-03-18T04:52:45;95972.91;;;8.57;72.70
36386;BME280;24125;47.482;8.770;2023-03-18T04:55:18;95972.78;;;8.54;72.86
36386;BME280;24125;47.482;8.770;2023-03-18T04:57:51;95974.19;;;8.51;72.42
36386;BME280;24125;47.482;8.770;2023-03-18T05:00:24;95972.16;;;8.48;72.84
36386;BME280;24125;47.482;8.770;2023-03-18T05:02:59;95980.00;;;8.45;72.86
36386;BME280;24125;47.482;8.770;2023-03-18T05:05:33;95969.19;;;8.41;72.48
36386;BME280;24125;47.482;8.770;2023-03-18T05:08:08;95973.91;;;8.36;72.61
36386;BME280;24125;47.482;8.770;2023-03-18T05:10:41;95972.66;;;8.33;72.11
36386;BME280;24125;47.482;8.770;2023-03-18T05:13:15;95973.09;;;8.26;72.33
36386;BME280;24125;47.482;8.770;2023-03-18T05:15:48;95973.72;;;8.23;72.27
36386;BME280;24125;47.482;8.770;2023-03-18T05:18:23;95975.78;;;8.18;72.33
36386;BME280;24125;47.482;8.770;2023-03-18T05:20:55;95976.69;;;8.13;71.81
36386;BME280;24125;47.482;8.770;2023-03-18T05:23:28;95975.47;;;8.11;71.81
36386;BME280;24125;47.482;8.770;2023-03-18T05:26:01;95978.25;;;8.06;72.08
36386;BME280;24125;47.482;8.770;2023-03-18T05:28:33;95987.97;;;8.02;71.73
36386;BME280;24125;47.482;8.770;2023-03-18T05:31:06;95991.56;;;7.97;71.97
36386;BME280;24125;47.482;8.770;2023-03-18T05:33:42;95997.53;;;7.94;71.97
36386;BME280;24125;47.482;8.770;2023-03-18T05:36:15;95988.13;;;7.88;72.04
36386;BME280;24125;47.482;8.770;2023-03-18T05:38:49;95984.22;;;7.85;72.04
36386;BME280;24125;47.482;8.770;2023-03-18T05:41:21;95984.84;;;7.82;72.37
36386;BME280;24125;47.482;8.770;2023-03-18T05:43:54;95980.59;;;7.81;72.50
36386;BME280;24125;47.482;8.770;2023-03-18T05:46:27;95984.34;;;7.80;72.50
36386;BME280;24125;47.482;8.770;2023-03-18T05:49:02;95975.94;;;7.78;73.03
36386;BME280;24125;47.482;8.770;2023-03-18T05:51:34;95974.38;;;7.77;72.63
36386;BME280;24125;47.482;8.770;2023-03-18T05:54:08;95976.25;;;7.77;72.81
36386;BME280;24125;47.482;8.770;2023-03-18T05:56:40;95987.97;;;7.76;73.44
36386;BME280;24125;47.482;8.770;2023-03-18T05:59:13;95978.13;;;7.76;72.93
36386;BME280;24125;47.482;8.770;2023-03-18T06:01:46;95970.16;;;7.76;73.39
36386;BME280;24125;47.482;8.770;2023-03-18T06:04:21;95972.50;;;7.78;73.28
36386;BME280;24125;47.482;8.770;2023-03-18T06:06:55;95966.84;;;7.79;73.72
36386;BME280;24125;47.482;8.770;2023-03-18T06:09:28;95973.72;;;7.80;73.32
36386;BME280;24125;47.482;8.770;2023-03-18T06:12:03;95984.06;;;7.82;73.57
36386;BME280;24125;47.482;8.770;2023-03-18T06:14:37;95977.66;;;7.83;73.12
36386;BME280;24125;47.482;8.770;2023-03-18T06:17:10;95973.13;;;7.83;73.69
36386;BME280;24125;47.482;8.770;2023-03-18T06:19:45;95976.25;;;7.85;73.56
36386;BME280;24125;47.482;8.770;2023-03-18T06:22:18;95974.38;;;7.86;73.58
36386;BME280;24125;47.482;8.770;2023-03-18T06:24:51;95978.25;;;7.88;73.85
36386;BME280;24125;47.482;8.770;2023-03-18T06:27:24;95988.28;;;7.91;73.32
36386;BME280;24125;47.482;8.770;2023-03-18T06:29:57;95987.97;;;7.93;74.03
36386;BME280;24125;47.482;8.770;2023-03-18T06:32:33;95985.94;;;7.99;74.03
36386;BME280;24125;47.482;8.770;2023-03-18T06:35:08;95984.22;;;8.03;73.79
36386;BME280;24125;47.482;8.770;2023-03-18T06:37:42;95979.84;;;8.07;74.09
36386;BME280;24125;47.482;8.770;2023-03-18T06:40:14;95987.66;;;8.12;73.98
36386;BME280;24125;47.482;8.770;2023-03-18T06:42:47;95989.38;;;8.16;74.08
36386;BME280;24125;47.482;8.770;2023-03-18T06:45:20;95985.78;;;8.21;74.28
36386;BME280;24125;47.482;8.770;2023-03-18T06:47:53;95984.84;;;8.25;74.77
36386;BME280;24125;47.482;8.770;2023-03-18T06:50:28;95987.50;;;8.34;74.53
36386;BME280;24125;47.482;8.770;2023-03-18T06:53:02;95994.69;;;8.42;74.88
36386;BME280;24125;47.482;8.770;2023-03-18T06:55:35;95993.44;;;8.48;75.01
36386;BME280;24125;47.482;8.770;2023-03-18T06:58:08;95984.34;;;8.58;75.31
36386;BME280;24125;47.482;8.770;2023-03-18T07:00:42;95992.78;;;8.68;75.55
36386;BME280;24125;47.482;8.770;2023-03-18T07:03:18;95991.66;;;8.78;76.12
36386;BME280;24125;47.482;8.770;2023-03-18T07:05:53;96005.84;;;8.91;76.28
36386;BME280;24125;47.482;8.770;2023-03-18T07:08:26;96000.97;;;9.01;76.52
36386;BME280;24125;47.482;8.770;2023-03-18T07:10:59;96000.78;;;9.15;76.62
36386;BME280;24125;47.482;8.770;2023-03-18T07:13:33;95999.78;;;9.28;76.72
36386;BME280;24125;47.482;8.770;2023-03-18T07:16:06;95998.00;;;9.41;76.91
36386;BME280;24125;47.482;8.770;2023-03-18T07:18:38;95998.06;;;9.53;77.12
36386;BME280;24125;47.482;8.770;2023-03-18T07:21:14;95999.41;;;9.68;77.21
36386;BME280;24125;47.482;8.770;2023-03-18T07:23:48;95999.16;;;9.81;77.42
36386;BME280;24125;47.482;8.770;2023-03-18T07:26:22;96005.00;;;9.96;77.67
36386;BME280;24125;47.482;8.770;2023-03-18T07:28:55;96007.91;;;10.11;77.60
36386;BME280;24125;47.482;8.770;2023-03-18T07:31:28;96010.78;;;10.27;77.84
36386;BME280;24125;47.482;8.770;2023-03-18T07:34:01;96008.28;;;10.43;77.88
36386;BME280;24125;47.482;8.770;2023-03-18T07:36:35;96009.69;;;10.61;77.92
36386;BME280;24125;47.482;8.770;2023-03-18T07:39:08;96011.72;;;10.76;77.94
36386;BME280;24125;47.482;8.770;2023-03-18T07:41:41;96019.91;;;10.92;78.14
36386;BME280;24125;47.482;8.770;2023-03-18T07:44:14;96025.81;;;11.10;77.78
36386;BME280;24125;47.482;8.770;2023-03-18T07:46:47;96022.19;;;11.26;77.94
36386;BME280;24125;47.482;8.770;2023-03-18T07:49:19;96023.06;;;11.43;78.13
36386;BME280;24125;47.482;8.770;2023-03-18T07:51:55;96019.75;;;11.58;78.11
36386;BME280;24125;47.482;8.770;2023-03-18T07:54:28;96020.97;;;11.72;77.66
36386;BME280;24125;47.482;8.770;2023-03-18T07:57:01;96024.88;;;11.87;77.78
36386;BME280;24125;47.482;8.770;2023-03-18T07:59:34;96021.50;;;12.02;77.75
36386;BME280;24125;47.482;8.770;2023-03-18T08:02:09;96022.38;;;12.19;78.06
36386;BME280;24125;47.482;8.770;2023-03-18T08:04:43;96022.78;;;12.33;77.60
36386;BME280;24125;47.482;8.770;2023-03-18T08:07:18;96009.44;;;12.48;77.59
36386;BME280;24125;47.482;8.770;2023-03-18T08:09:53;96006.81;;;12.64;77.32
36386;BME280;24125;47.482;8.770;2023-03-18T08:12:26;96012.56;;;12.78;77.28
36386;BME280;24125;47.482;8.770;2023-03-18T08:15:15;96011.13;;;12.97;77.56
36386;BME280;24125;47.482;8.770;2023-03-18T08:17:48;96004.88;;;13.08;77.51
36386;BME280;24125;47.482;8.770;2023-03-18T08:20:21;96011.06;;;13.25;77.47
36386;BME280;24125;47.482;8.770;2023-03-18T08:22:55;96005.63;;;13.37;77.46
36386;BME280;24125;47.482;8.770;2023-03-18T08:25:28;96008.63;;;13.51;77.26
36386;BME280;24125;47.482;8.770;2023-03-18T08:28:02;96011.66;;;13.65;77.17
36386;BME280;24125;47.482;8.770;2023-03-18T08:30:38;96013.09;;;13.78;76.61
36386;BME280;24125;47.482;8.770;2023-03-18T08:33:11;96006.13;;;13.93;77.08
36386;BME280;24125;47.482;8.770;2023-03-18T08:35:44;96012.97;;;14.06;76.45
36386;BME280;24125;47.482;8.770;2023-03-18T08:38:18;96006.69;;;14.18;76.64
36386;BME280;24125;47.482;8.770;2023-03-18T08:40:51;96004.28;;;14.32;77.24
36386;BME280;24125;47.482;8.770;2023-03-18T08:43:23;96006.88;;;14.44;76.94
36386;BME280;24125;47.482;8.770;2023-03-18T08:45:57;96006.72;;;14.56;76.89
36386;BME280;24125;47.482;8.770;2023-03-18T08:48:30;96004.69;;;14.69;76.89
36386;BME280;24125;47.482;8.770;2023-03-18T08:51:03;95997.22;;;14.82;73.97
36386;BME280;24125;47.482;8.770;2023-03-18T08:53:40;95998.63;;;14.95;74.78
36386;BME280;24125;47.482;8.770;2023-03-18T08:56:13;96007.63;;;15.06;74.12
36386;BME280;24125;47.482;8.770;2023-03-18T08:58:46;96003.59;;;15.16;75.07
36386;BME280;24125;47.482;8.770;2023-03-18T09:01:19;96006.47;;;15.26;72.66
36386;BME280;24125;47.482;8.770;2023-03-18T09:03:52;95998.56;;;15.37;71.97
36386;BME280;24125;47.482;8.770;2023-03-18T09:06:28;95995.28;;;15.47;75.26
36386;BME280;24125;47.482;8.770;2023-03-18T09:09:02;96002.75;;;15.57;74.49
36386;BME280;24125;47.482;8.770;2023-03-18T09:11:35;96001.34;;;15.67;73.03
36386;BME280;24125;47.482;8.770;2023-03-18T09:14:09;95997.28;;;15.76;73.26
36386;BME280;24125;47.482;8.770;2023-03-18T09:16:42;95987.03;;;15.85;74.61
36386;BME280;24125;47.482;8.770;2023-03-18T09:19:16;95993.72;;;15.95;73.87
36386;BME280;24125;47.482;8.770;2023-03-18T09:21:49;95988.06;;;16.04;72.52
36386;BME280;24125;47.482;8.770;2023-03-18T09:24:23;95988.56;;;16.13;74.00
36386;BME280;24125;47.482;8.770;2023-03-18T09:26:56;95987.50;;;16.21;72.09
36386;BME280;24125;47.482;8.770;2023-03-18T09:29:30;95985.31;;;16.30;74.44
36386;BME280;24125;47.482;8.770;2023-03-18T09:32:03;95983.13;;;16.39;75.06
36386;BME280;24125;47.482;8.770;2023-03-18T09:34:36;95986.25;;;16.45;75.10
36386;BME280;24125;47.482;8.770;2023-03-18T09:37:09;95978.25;;;16.52;74.62
36386;BME280;24125;47.482;8.770;2023-03-18T09:39:43;95978.72;;;16.57;70.29
36386;BME280;24125;47.482;8.770;2023-03-18T09:42:21;95968.03;;;16.65;74.27
36386;BME280;24125;47.482;8.770;2023-03-18T09:44:58;95968.53;;;16.74;76.28
36386;BME280;24125;47.482;8.770;2023-03-18T09:47:42;95977.03;;;16.79;75.57
36386;BME280;24125;47.482;8.770;2023-03-18T09:50:21;95976.75;;;16.88;73.78
36386;BME280;24125;47.482;8.770;2023-03-18T09:53:01;95972.97;;;16.96;72.42
36386;BME280;24125;47.482;8.770;2023-03-18T09:55:40;95956.47;;;17.01;68.94
36386;BME280;24125;47.482;8.770;2023-03-18T09:58:18;95960.06;;;17.12;71.91
36386;BME280;24125;47.482;8.770;2023-03-18T10:00:54;95966.66;;;17.22;72.85
36386;BME280;24125;47.482;8.770;2023-03-18T10:03:32;95961.34;;;17.29;72.69
36386;BME280;24125;47.482;8.770;2023-03-18T10:06:06;95958.69;;;17.36;70.42
36386;BME280;24125;47.482;8.770;2023-03-18T10:08:48;95957.97;;;17.43;70.41
36386;BME280;24125;47.482;8.770;2023-03-18T10:11:28;95952.63;;;17.50;73.45
36386;BME280;24125;47.482;8.770;2023-03-18T10:14:17;95950.38;;;17.55;68.24
36386;BME280;24125;47.482;8.770;2023-03-18T10:16:55;95956.19;;;17.61;72.31
36386;BME280;24125;47.482;8.770;2023-03-18T10:19:32;95961.63;;;17.64;72.06
36386;BME280;24125;47.482;8.770;2023-03-18T10:22:24;95962.44;;;17.68;73.54
36386;BME280;24125;47.482;8.770;2023-03-18T10:25:00;95956.28;;;17.71;72.82
36386;BME280;24125;47.482;8.770;2023-03-18T10:27:43;95955.50;;;17.75;69.33
36386;BME280;24125;47.482;8.770;2023-03-18T10:30:26;95948.22;;;17.79;70.69
36386;BME280;24125;47.482;8.770;2023-03-18T10:33:03;95950.56;;;17.84;72.68
36386;BME280;24125;47.482;8.770;2023-03-18T10:35:40;95949.03;;;17.86;67.77
36386;BME280;24125;47.482;8.770;2023-03-18T10:38:16;95947.91;;;17.87;70.43
36386;BME280;24125;47.482;8.770;2023-03-18T10:40:50;95946.38;;;17.90;71.16
36386;BME280;24125;47.482;8.770;2023-03-18T10:43:25;95939.03;;;17.90;71.83
36386;BME280;24125;47.482;8.770;2023-03-18T10:45:59;95941.72;;;17.90;72.37
36386;BME280;24125;47.482;8.770;2023-03-18T10:48:32;95930.16;;;17.90;70.04
36386;BME280;24125;47.482;8.770;2023-03-18T10:51:08;95924.75;;;17.90;68.63
36386;BME280;24125;47.482;8.770;2023-03-18T10:53:45;95932.09;;;17.93;70.05
36386;BME280;24125;47.482;8.770;2023-03-18T10:56:19;95922.44;;;17.92;70.34
36386;BME280;24125;47.482;8.770;2023-03-18T10:58:54;95922.84;;;17.94;70.04
36386;BME280;24125;47.482;8.770;2023-03-18T11:01:27;95917.84;;;17.96;71.77
36386;BME280;24125;47.482;8.770;2023-03-18T11:04:01;95919.78;;;17.99;66.03
36386;BME280;24125;47.482;8.770;2023-03-18T11:06:39;95921.72;;;18.02;66.75
36386;BME280;24125;47.482;8.770;2023-03-18T11:09:15;95918.66;;;18.03;68.77
36386;BME280;24125;47.482;8.770;2023-03-18T11:11:48;95916.34;;;18.05;66.56
36386;BME280;24125;47.482;8.770;2023-03-18T11:14:26;95914.78;;;18.08;66.33
36386;BME280;24125;47.482;8.770;2023-03-18T11:17:00;95913.28;;;18.10;63.31
36386;BME280;24125;47.482;8.770;2023-03-18T11:19:35;95904.41;;;18.14;65.54
36386;BME280;24125;47.482;8.770;2023-03-18T11:22:14;95912.53;;;18.17;65.15
36386;BME280;24125;47.482;8.770;2023-03-18T11:25:03;95893.22;;;18.19;65.01
36386;BME280;24125;47.482;8.770;2023-03-18T11:27:37;95898.66;;;18.22;69.31
36386;BME280;24125;47.482;8.770;2023-03-18T11:30:14;95892.88;;;18.24;68.21
36386;BME280;24125;47.482;8.770;2023-03-18T11:33:04;95887.47;;;18.27;69.43
36386;BME280;24125;47.482;8.770;2023-03-18T11:35:38;95882.09;;;18.31;72.43
36386;BME280;24125;47.482;8.770;2023-03-18T11:38:16;95870.91;;;18.32;68.33
36386;BME280;24125;47.482;8.770;2023-03-18T11:40:49;95866.28;;;18.36;65.26
36386;BME280;24125;47.482;8.770;2023-03-18T11:43:22;95868.59;;;18.38;67.62
36386;BME280;24125;47.482;8.770;2023-03-18T11:45:58;95868.22;;;18.43;71.08
36386;BME280;24125;47.482;8.770;2023-03-18T11:48:32;95863.97;;;18.45;65.51
36386;BME280;24125;47.482;8.770;2023-03-18T11:51:21;95868.63;;;18.48;68.96
36386;BME280;24125;47.482;8.770;2023-03-18T11:56:49;95856.69;;;18.57;70.07
36386;BME280;24125;47.482;8.770;2023-03-18T11:59:28;95855.53;;;18.61;67.61
36386;BME280;24125;47.482;8.770;2023-03-18T12:04:54;95848.59;;;18.67;72.82
36386;BME280;24125;47.482;8.770;2023-03-18T12:07:41;95852.44;;;18.70;72.87
36386;BME280;24125;47.482;8.770;2023-03-18T12:10:21;95844.72;;;18.72;70.87
36386;BME280;24125;47.482;8.770;2023-03-18T12:13:02;95852.44;;;18.77;70.70
36386;BME280;24125;47.482;8.770;2023-03-18T12:15:41;95852.47;;;18.80;71.46
36386;BME280;24125;47.482;8.770;2023-03-18T12:18:22;95842.03;;;18.86;68.60
36386;BME280;24125;47.482;8.770;2023-03-18T12:21:00;95837.78;;;18.89;67.53
36386;BME280;24125;47.482;8.770;2023-03-18T12:23:50;95833.16;;;18.93;65.98
36386;BME280;24125;47.482;8.770;2023-03-18T12:26:25;95837.41;;;19.01;69.83
36386;BME280;24125;47.482;8.770;2023-03-18T12:29:07;95829.28;;;19.04;67.80
36386;BME280;24125;47.482;8.770;2023-03-18T12:31:55;95834.31;;;19.09;68.17
36386;BME280;24125;47.482;8.770;2023-03-18T12:34:46;95830.03;;;19.12;65.88
36386;BME280;24125;47.482;8.770;2023-03-18T12:37:27;95830.03;;;19.15;66.94
36386;BME280;24125;47.482;8.770;2023-03-18T12:40:14;95823.47;;;19.16;65.62
36386;BME280;24125;47.482;8.770;2023-03-18T12:42:53;95826.16;;;19.20;65.53
36386;BME280;24125;47.482;8.770;2023-03-18T12:45:29;95826.94;;;19.20;69.00
36386;BME280;24125;47.482;8.770;2023-03-18T12:48:07;95825.78;;;19.21;68.44
36386;BME280;24125;47.482;8.770;2023-03-18T12:50:42;95824.22;;;19.24;67.93
36386;BME280;24125;47.482;8.770;2023-03-18T12:53:21;95818.81;;;19.24;67.25
36386;BME280;24125;47.482;8.770;2023-03-18T12:55:56;95816.50;;;19.22;60.21
36386;BME280;24125;47.482;8.770;2023-03-18T12:58:34;95818.06;;;19.27;66.77
36386;BME280;24125;47.482;8.770;2023-03-18T13:01:10;95812.22;;;19.29;70.25
36386;BME280;24125;47.482;8.770;2023-03-18T13:03:49;95813.38;;;19.31;65.82
36386;BME280;24125;47.482;8.770;2023-03-18T13:06:26;95806.44;;;19.34;69.13
36386;BME280;24125;47.482;8.770;2023-03-18T13:09:05;95812.22;;;19.36;68.66
36386;BME280;24125;47.482;8.770;2023-03-18T13:11:58;95814.53;;;19.37;68.30
36386;BME280;24125;47.482;8.770;2023-03-18T13:14:37;95815.69;;;19.40;73.06
36386;BME280;24125;47.482;8.770;2023-03-18T13:17:14;95820.34;;;19.43;74.70
36386;BME280;24125;47.482;8.770;2023-03-18T13:19:48;95818.78;;;19.45;73.83
36386;BME280;24125;47.482;8.770;2023-03-18T13:22:26;95817.63;;;19.50;72.29
36386;BME280;24125;47.482;8.770;2023-03-18T13:25:09;95812.97;;;19.57;73.68
36386;BME280;24125;47.482;8.770;2023-03-18T13:27:53;95820.69;;;19.66;73.46
36386;BME280;24125;47.482;8.770;2023-03-18T13:30:32;95814.06;;;19.78;74.61
36386;BME280;24125;47.482;8.770;2023-03-18T13:33:14;95812.09;;;19.85;72.87
36386;BME280;24125;47.482;8.770;2023-03-18T13:36:00;95805.88;;;19.95;63.96
36386;BME280;24125;47.482;8.770;2023-03-18T13:38:41;95812.41;;;20.05;73.70
36386;BME280;24125;47.482;8.770;2023-03-18T13:41:25;95808.09;;;20.15;74.62
36386;BME280;24125;47.482;8.770;2023-03-18T13:44:04;95798.75;;;20.23;72.95
36386;BME280;24125;47.482;8.770;2023-03-18T13:46:42;95797.94;;;20.29;71.98
36386;BME280;24125;47.482;8.770;2023-03-18T13:49:18;95802.19;;;20.38;72.92
36386;BME280;24125;47.482;8.770;2023-03-18T13:51:54;95794.78;;;20.42;70.88